createdAt,value
2018-11-10T00:02:06.905Z,96780.89
2018-11-10T00:04:34.384Z,96783.52
2018-11-10T00:07:01.800Z,96787.38
2018-11-10T00:09:29.227Z,96786.34
2018-11-10T00:11:56.631Z,96781.31
2018-11-10T00:14:24.086Z,96785.05
2018-11-10T00:16:51.531Z,96784.69
2018-11-10T00:19:18.965Z,96783.17
2018-11-10T00:21:47.288Z,96785.77
2018-11-10T00:24:14.754Z,96779.89
2018-11-10T00:26:42.220Z,96772.13
2018-11-10T00:29:09.717Z,96778.67
2018-11-10T00:31:37.277Z,96785.63
2018-11-10T00:34:04.703Z,96778.99
2018-11-10T00:36:32.140Z,96774.56
2018-11-10T00:38:59.619Z,96774.92
2018-11-10T00:41:27.024Z,96780.86
2018-11-10T00:43:54.433Z,96779.75
2018-11-10T00:46:22.062Z,96779.06
2018-11-10T00:48:49.547Z,96775.41
2018-11-10T00:51:16.997Z,96777.94
2018-11-10T00:53:44.445Z,96786.45
2018-11-10T00:56:11.948Z,96777.53
2018-11-10T00:58:39.422Z,96779.86
2018-11-10T01:01:06.880Z,96778.25
2018-11-10T01:03:34.402Z,96790.80
2018-11-10T01:06:01.813Z,96782.92
2018-11-10T01:08:29.323Z,96781.31
2018-11-10T01:10:56.727Z,96780.62
2018-11-10T01:13:24.186Z,96781.40
2018-11-10T01:15:51.647Z,96768.43
2018-11-10T01:18:19.084Z,96775.63
2018-11-10T01:20:46.487Z,96764.80
2018-11-10T01:23:13.935Z,96768.52
2018-11-10T01:25:42.117Z,96762.20
2018-11-10T01:28:09.631Z,96758.12
2018-11-10T01:30:37.067Z,96757.82
2018-11-10T01:33:04.482Z,96758.77
2018-11-10T01:35:31.918Z,96759.67
2018-11-10T01:37:59.350Z,96751.25
2018-11-10T01:40:27.522Z,96749.52
2018-11-10T01:42:55.034Z,96753.74
2018-11-10T01:45:22.453Z,96745.05
2018-11-10T01:47:50.871Z,96736.06
2018-11-10T01:50:18.325Z,96728.83
2018-11-10T01:52:45.773Z,96730.95
2018-11-10T01:55:13.222Z,96720.93
2018-11-10T01:57:40.822Z,96720.74
2018-11-10T02:00:08.259Z,96720.78
2018-11-10T02:02:35.678Z,96714.81
2018-11-10T02:05:03.154Z,96694.63
2018-11-10T02:07:30.659Z,96698.52
2018-11-10T02:09:58.072Z,96696.57
2018-11-10T02:12:25.489Z,96697.56
2018-11-10T02:14:52.938Z,96690.08
2018-11-10T02:17:20.361Z,96686.79
2018-11-10T02:19:47.872Z,96685.80
2018-11-10T02:22:15.355Z,96693.08
2018-11-10T02:24:42.796Z,96685.02
2018-11-10T02:27:10.273Z,96677.83
2018-11-10T02:29:37.741Z,96682.19
2018-11-10T02:32:05.356Z,96683.61
2018-11-10T02:34:33.292Z,96676.63
2018-11-10T02:37:00.750Z,96672.59
2018-11-10T02:39:28.181Z,96672.20
2018-11-10T02:41:55.680Z,96673.62
2018-11-10T02:44:23.080Z,96675.52
2018-11-10T02:46:50.519Z,96672.61
2018-11-10T02:49:17.992Z,96685.44
2018-11-10T02:51:45.436Z,96679.61
2018-11-10T02:54:12.894Z,96689.17
2018-11-10T02:56:40.375Z,96683.92
2018-11-10T02:59:07.855Z,96671.11
2018-11-10T03:01:35.308Z,96659.22
2018-11-10T03:04:02.752Z,96651.72
2018-11-10T03:06:30.218Z,96646.64
2018-11-10T03:08:57.671Z,96643.94
2018-11-10T03:11:25.094Z,96640.41
2018-11-10T03:13:53.007Z,96632.42
2018-11-10T03:16:20.545Z,96625.95
2018-11-10T03:18:47.876Z,96615.30
2018-11-10T03:21:15.330Z,96607.30
2018-11-10T03:23:42.774Z,96611.17
2018-11-10T03:26:10.244Z,96626.22
2018-11-10T03:28:37.689Z,96629.91
2018-11-10T03:31:05.197Z,96617.56
2018-11-10T03:33:32.655Z,96620.98
2018-11-10T03:36:00.087Z,96620.14
2018-11-10T03:38:27.502Z,96616.37
2018-11-10T03:40:54.975Z,96625.41
2018-11-10T03:43:22.389Z,96626.90
2018-11-10T03:45:49.827Z,96629.09
2018-11-10T03:48:17.259Z,96633.83
2018-11-10T03:50:44.670Z,96636.52
2018-11-10T03:53:12.102Z,96632.86
2018-11-10T03:55:39.551Z,96641.70
2018-11-10T03:58:07.001Z,96625.75
2018-11-10T04:00:34.421Z,96629.27
2018-11-10T04:03:01.923Z,96622.25
2018-11-10T04:05:29.381Z,96629.22
2018-11-10T04:07:56.822Z,96631.59
2018-11-10T04:10:24.334Z,96625.06
2018-11-10T04:12:51.793Z,96630.33
2018-11-10T04:15:19.163Z,96629.20
2018-11-10T04:17:46.590Z,96635.80
2018-11-10T04:20:14.037Z,96623.96
2018-11-10T04:22:42.355Z,96627.62
2018-11-10T04:25:09.787Z,96618.42
2018-11-10T04:27:37.372Z,96616.48
2018-11-10T04:30:04.755Z,96623.85
2018-11-10T04:32:32.948Z,96626.80
2018-11-10T04:35:00.418Z,96630.23
2018-11-10T04:37:27.863Z,96625.42
2018-11-10T04:39:55.297Z,96626.36
2018-11-10T04:42:22.753Z,96614.68
2018-11-10T04:44:50.215Z,96625.72
2018-11-10T04:47:18.333Z,96622.05
2018-11-10T04:49:45.863Z,96618.34
2018-11-10T04:52:13.281Z,96620.69
2018-11-10T04:54:40.750Z,96622.14
2018-11-10T04:57:08.170Z,96616.87
2018-11-10T04:59:35.625Z,96614.74
2018-11-10T05:02:03.065Z,96613.34
2018-11-10T05:04:30.533Z,96612.59
2018-11-10T05:06:57.975Z,96611.63
2018-11-10T05:09:25.377Z,96620.19
2018-11-10T05:11:52.798Z,96620.14
2018-11-10T05:14:20.227Z,96624.96
2018-11-10T05:16:47.655Z,96618.97
2018-11-10T05:19:15.146Z,96622.96
2018-11-10T05:21:42.594Z,96611.91
2018-11-10T05:24:10.109Z,96611.41
2018-11-10T05:26:37.546Z,96618.25
2018-11-10T05:29:05.019Z,96618.47
2018-11-10T05:31:32.469Z,96618.65
2018-11-10T05:33:59.907Z,96621.53
2018-11-10T05:36:27.360Z,96624.16
2018-11-10T05:38:55.193Z,96619.34
2018-11-10T05:41:22.639Z,96612.89
2018-11-10T05:43:50.053Z,96609.92
2018-11-10T05:46:17.503Z,96614.84
2018-11-10T05:48:44.914Z,96630.02
2018-11-10T05:51:12.327Z,96621.83
2018-11-10T05:53:39.825Z,96619.45
2018-11-10T05:56:07.246Z,96622.87
2018-11-10T05:58:34.751Z,96626.82
2018-11-10T06:01:02.194Z,96629.88
2018-11-10T06:03:29.646Z,96633.39
2018-11-10T06:05:57.090Z,96632.23
2018-11-10T06:08:24.735Z,96621.66
2018-11-10T06:10:52.145Z,96621.95
2018-11-10T06:13:19.550Z,96634.28
2018-11-10T06:15:46.956Z,96631.21
2018-11-10T06:18:14.371Z,96632.83
2018-11-10T06:20:41.782Z,96622.91
2018-11-10T06:23:09.251Z,96614.69
2018-11-10T06:25:37.069Z,96612.24
2018-11-10T06:28:04.516Z,96603.52
2018-11-10T06:30:32.600Z,96616.49
2018-11-10T06:32:59.993Z,96623.94
2018-11-10T06:35:27.390Z,96625.28
2018-11-10T06:37:54.862Z,96630.03
2018-11-10T06:40:22.299Z,96626.03
2018-11-10T06:42:49.742Z,96626.73
2018-11-10T06:45:17.180Z,96631.22
2018-11-10T06:47:44.880Z,96627.79
2018-11-10T06:50:12.283Z,96626.88
2018-11-10T06:52:39.712Z,96625.50
2018-11-10T06:55:07.177Z,96631.24
2018-11-10T06:57:35.089Z,96625.23
2018-11-10T07:00:02.519Z,96633.03
2018-11-10T07:02:30.038Z,96632.16
2018-11-10T07:04:57.462Z,96630.98
2018-11-10T07:07:25.906Z,96633.31
2018-11-10T07:09:53.315Z,96629.93
2018-11-10T07:12:20.743Z,96636.69
2018-11-10T07:14:48.158Z,96631.48
2018-11-10T07:17:15.602Z,96637.22
2018-11-10T07:19:43.102Z,96637.25
2018-11-10T07:22:10.577Z,96641.59
2018-11-10T07:24:38.017Z,96644.59
2018-11-10T07:27:05.449Z,96643.38
2018-11-10T07:29:32.843Z,96655.85
2018-11-10T07:32:00.373Z,96656.23
2018-11-10T07:34:27.955Z,96650.35
2018-11-10T07:36:55.365Z,96650.45
2018-11-10T07:39:22.792Z,96650.86
2018-11-10T07:41:50.934Z,96644.11
2018-11-10T07:44:18.393Z,96642.83
2018-11-10T07:46:45.953Z,96657.78
2018-11-10T07:49:13.437Z,96658.70
2018-11-10T07:51:40.823Z,96663.53
2018-11-10T07:54:08.260Z,96651.45
2018-11-10T07:56:35.712Z,96647.70
2018-11-10T07:59:03.154Z,96650.26
2018-11-10T08:01:30.682Z,96652.39
2018-11-10T08:03:58.132Z,96657.39
2018-11-10T08:06:25.575Z,96665.88
2018-11-10T08:08:53.058Z,96673.49
2018-11-10T08:11:20.515Z,96669.70
2018-11-10T08:13:47.984Z,96663.42
2018-11-10T08:16:15.412Z,96665.41
2018-11-10T08:18:42.971Z,96661.02
2018-11-10T08:21:10.680Z,96664.75
2018-11-10T08:23:38.120Z,96663.05
2018-11-10T08:26:05.561Z,96669.34
2018-11-10T08:28:33.035Z,96659.30
2018-11-10T08:31:00.522Z,96665.36
2018-11-10T08:33:27.948Z,96667.88
2018-11-10T08:35:55.438Z,96673.34
2018-11-10T08:38:23.602Z,96671.91
2018-11-10T08:40:51.034Z,96671.01
2018-11-10T08:43:18.447Z,96666.20
2018-11-10T08:45:46.006Z,96670.61
2018-11-10T08:48:13.449Z,96669.08
2018-11-10T08:50:40.979Z,96671.80
2018-11-10T08:53:08.415Z,96663.06
2018-11-10T08:55:35.891Z,96660.28
2018-11-10T08:58:03.758Z,96656.41
2018-11-10T09:00:31.197Z,96662.83
2018-11-10T09:02:58.638Z,96658.30
2018-11-10T09:05:26.061Z,96658.64
2018-11-10T09:07:53.637Z,96658.32
2018-11-10T09:10:21.930Z,96664.14
2018-11-10T09:12:49.371Z,96659.22
2018-11-10T09:15:16.977Z,96648.48
2018-11-10T09:17:44.323Z,96645.20
2018-11-10T09:20:11.736Z,96646.48
2018-11-10T09:22:39.247Z,96642.91
2018-11-10T09:25:06.804Z,96644.62
2018-11-10T09:27:34.406Z,96638.72
2018-11-10T09:30:02.069Z,96637.42
2018-11-10T09:32:29.499Z,96636.95
2018-11-10T09:34:57.185Z,96641.27
2018-11-10T09:37:24.640Z,96644.98
2018-11-10T09:39:52.077Z,96649.58
2018-11-10T09:42:19.831Z,96646.67
2018-11-10T09:44:47.239Z,96646.84
2018-11-10T09:47:14.642Z,96646.26
2018-11-10T09:49:42.165Z,96645.98
2018-11-10T09:52:09.585Z,96652.02
2018-11-10T09:54:37.009Z,96649.73
2018-11-10T09:57:04.539Z,96644.22
2018-11-10T09:59:32.080Z,96644.24
2018-11-10T10:02:00.711Z,96634.14
2018-11-10T10:04:28.554Z,96630.86
2018-11-10T10:06:55.978Z,96621.92
2018-11-10T10:09:23.431Z,96619.56
2018-11-10T10:11:50.906Z,96615.04
2018-11-10T10:14:18.306Z,96621.02
2018-11-10T10:16:45.977Z,96609.80
2018-11-10T10:19:13.410Z,96601.77
2018-11-10T10:21:41.030Z,96608.53
2018-11-10T10:24:08.483Z,96604.01
2018-11-10T10:26:36.039Z,96603.45
2018-11-10T10:29:03.576Z,96587.30
2018-11-10T10:31:30.978Z,96590.81
2018-11-10T10:33:58.506Z,96583.50
2018-11-10T10:36:25.968Z,96588.50
2018-11-10T10:38:53.510Z,96584.66
2018-11-10T10:41:21.090Z,96577.48
2018-11-10T10:43:48.523Z,96571.52
2018-11-10T10:46:16.902Z,96574.52
2018-11-10T10:48:44.445Z,96576.05
2018-11-10T10:51:12.118Z,96581.09
2018-11-10T10:53:39.576Z,96559.50
2018-11-10T10:56:07.135Z,96565.06
2018-11-10T10:58:34.540Z,96550.08
2018-11-10T11:01:02.188Z,96550.84
2018-11-10T11:03:29.701Z,96545.00
2018-11-10T11:05:57.203Z,96551.16
2018-11-10T11:08:24.618Z,96556.05
2018-11-10T11:10:52.051Z,96553.24
2018-11-10T11:13:19.500Z,96558.45
2018-11-10T11:15:47.009Z,96548.99
2018-11-10T11:18:14.340Z,96544.25
2018-11-10T11:20:41.821Z,96545.56
2018-11-10T11:23:09.336Z,96546.18
2018-11-10T11:25:38.014Z,96542.92
2018-11-10T11:28:05.464Z,96541.74
2018-11-10T11:30:32.878Z,96538.36
2018-11-10T11:33:01.206Z,96525.55
2018-11-10T11:35:28.707Z,96531.47
2018-11-10T11:37:56.162Z,96512.77
2018-11-10T11:40:24.246Z,96511.83
2018-11-10T11:42:51.805Z,96510.87
2018-11-10T11:45:19.296Z,96518.52
2018-11-10T11:47:46.732Z,96515.81
2018-11-10T11:50:14.180Z,96506.97
2018-11-10T11:52:41.701Z,96497.60
2018-11-10T11:55:09.199Z,96500.11
2018-11-10T11:57:36.701Z,96492.70
2018-11-10T12:00:05.238Z,96502.03
2018-11-10T12:02:32.672Z,96500.18
2018-11-10T12:05:00.152Z,96496.45
2018-11-10T12:07:27.738Z,96495.63
2018-11-10T12:09:55.217Z,96494.23
2018-11-10T12:12:22.789Z,96505.14
2018-11-10T12:14:50.385Z,96500.52
2018-11-10T12:17:17.839Z,96503.86
2018-11-10T12:19:45.369Z,96511.17
2018-11-10T12:22:12.891Z,96513.47
2018-11-10T12:24:40.269Z,96506.67
2018-11-10T12:27:08.581Z,96512.92
2018-11-10T12:29:36.124Z,96498.93
2018-11-10T12:32:03.594Z,96516.16
2018-11-10T12:34:31.030Z,96509.19
2018-11-10T12:36:58.464Z,96510.13
2018-11-10T12:39:27.025Z,96504.77
2018-11-10T12:41:54.481Z,96501.80
2018-11-10T12:44:22.755Z,96494.22
2018-11-10T12:46:50.347Z,96487.05
2018-11-10T12:49:17.896Z,96471.41
2018-11-10T12:51:45.215Z,96482.89
2018-11-10T12:54:12.642Z,96501.84
2018-11-10T12:56:40.110Z,96488.13
2018-11-10T12:59:08.498Z,96472.36
2018-11-10T13:01:36.066Z,96481.31
2018-11-10T13:04:04.272Z,96482.87
2018-11-10T13:06:31.729Z,96485.23
2018-11-10T13:08:59.259Z,96475.05
2018-11-10T13:11:26.896Z,96461.16
2018-11-10T13:16:28.052Z,96475.48
2018-11-10T13:18:55.464Z,96470.64
2018-11-10T13:21:23.076Z,96474.17
2018-11-10T13:23:50.649Z,96465.70
2018-11-10T13:26:18.098Z,96460.86
2018-11-10T13:28:45.627Z,96444.16
2018-11-10T13:31:13.877Z,96444.69
2018-11-10T13:33:41.549Z,96422.60
2018-11-10T13:36:09.007Z,96419.50
2018-11-10T13:38:36.475Z,96390.47
2018-11-10T13:41:03.935Z,96385.11
2018-11-10T13:43:31.959Z,96369.23
2018-11-10T13:45:59.389Z,96371.88
2018-11-10T13:48:26.876Z,96392.65
2018-11-10T13:50:54.522Z,96399.58
2018-11-10T13:53:21.792Z,96393.25
2018-11-10T13:55:49.277Z,96397.50
2018-11-10T13:58:17.099Z,96386.98
2018-11-10T14:00:44.567Z,96372.22
2018-11-10T14:03:12.152Z,96364.61
2018-11-10T14:05:39.686Z,96365.55
2018-11-10T14:08:07.072Z,96367.53
2018-11-10T14:10:34.635Z,96378.56
2018-11-10T14:13:02.094Z,96387.81
2018-11-10T14:15:29.537Z,96387.52
2018-11-10T14:17:57.008Z,96371.52
2018-11-10T14:20:24.532Z,96370.88
2018-11-10T14:22:51.949Z,96360.47
2018-11-10T14:25:19.643Z,96367.20
2018-11-10T14:27:47.144Z,96368.80
2018-11-10T14:30:14.558Z,96372.87
2018-11-10T14:32:42.054Z,96374.98
2018-11-10T14:35:09.774Z,96380.88
2018-11-10T14:37:37.178Z,96380.36
2018-11-10T14:40:04.622Z,96369.64
2018-11-10T14:42:33.196Z,96388.47
2018-11-10T14:45:00.664Z,96408.21
2018-11-10T14:47:28.161Z,96395.45
2018-11-10T14:49:55.613Z,96408.69
2018-11-10T14:52:23.140Z,96414.02
2018-11-10T14:54:51.347Z,96407.31
2018-11-10T14:57:18.867Z,96404.98
2018-11-10T14:59:46.274Z,96406.97
2018-11-10T15:02:13.741Z,96403.87
2018-11-10T15:04:41.694Z,96394.17
2018-11-10T15:07:09.215Z,96402.20
2018-11-10T15:09:36.681Z,96389.87
2018-11-10T15:12:04.254Z,96396.00
2018-11-10T15:14:31.664Z,96390.22
2018-11-10T15:16:59.071Z,96388.70
2018-11-10T15:19:26.590Z,96398.05
2018-11-10T15:21:54.044Z,96403.61
2018-11-10T15:24:21.491Z,96406.55
2018-11-10T15:26:48.930Z,96403.64
2018-11-10T15:29:16.856Z,96411.41
2018-11-10T15:31:44.299Z,96406.95
2018-11-10T15:34:11.702Z,96409.38
2018-11-10T15:36:39.244Z,96410.70
2018-11-10T15:39:06.706Z,96408.36
2018-11-10T15:41:34.929Z,96408.02
2018-11-10T15:44:02.423Z,96408.18
2018-11-10T15:46:29.863Z,96420.48
2018-11-10T15:48:57.292Z,96420.55
2018-11-10T15:51:25.319Z,96422.62
2018-11-10T15:53:52.780Z,96419.05
2018-11-10T15:56:20.244Z,96425.08
2018-11-10T15:58:47.696Z,96424.41
2018-11-10T16:01:15.142Z,96416.32
2018-11-10T16:03:42.625Z,96423.41
2018-11-10T16:06:10.084Z,96434.27
2018-11-10T16:08:37.689Z,96427.70
2018-11-10T16:11:05.086Z,96446.26
2018-11-10T16:13:32.641Z,96442.55
2018-11-10T16:16:00.114Z,96442.63
2018-11-10T16:18:27.550Z,96437.48
2018-11-10T16:20:55.011Z,96437.91
2018-11-10T16:23:22.432Z,96433.73
2018-11-10T16:25:49.923Z,96436.30
2018-11-10T16:28:17.344Z,96430.38
2018-11-10T16:30:45.012Z,96432.72
2018-11-10T16:33:12.486Z,96444.53
2018-11-10T16:35:39.986Z,96440.42
2018-11-10T16:38:07.426Z,96438.88
2018-11-10T16:40:34.858Z,96443.75
2018-11-10T16:43:02.310Z,96438.98
2018-11-10T16:45:29.809Z,96398.80
2018-11-10T16:47:57.241Z,96419.01
2018-11-10T16:50:24.675Z,96411.44
2018-11-10T16:52:52.149Z,96407.33
2018-11-10T16:55:19.658Z,96424.77
2018-11-10T16:57:47.050Z,96427.77
2018-11-10T17:00:14.938Z,96419.66
2018-11-10T17:02:42.415Z,96431.50
2018-11-10T17:05:09.859Z,96432.58
2018-11-10T17:07:37.311Z,96437.03
2018-11-10T17:10:04.737Z,96439.96
2018-11-10T17:12:32.186Z,96438.83
2018-11-10T17:14:59.652Z,96441.89
2018-11-10T17:17:27.132Z,96455.66
2018-11-10T17:19:54.600Z,96447.92
2018-11-10T17:22:22.031Z,96446.27
2018-11-10T17:24:49.453Z,96447.23
2018-11-10T17:27:16.964Z,96449.48
2018-11-10T17:29:44.487Z,96452.72
2018-11-10T17:32:11.936Z,96436.36
2018-11-10T17:34:39.368Z,96447.13
2018-11-10T17:37:06.873Z,96457.00
2018-11-10T17:39:34.366Z,96464.86
2018-11-10T17:42:01.935Z,96465.52
2018-11-10T17:44:29.361Z,96471.01
2018-11-10T17:46:56.828Z,96475.70
2018-11-10T17:49:24.329Z,96472.69
2018-11-10T17:51:51.844Z,96449.28
2018-11-10T17:54:19.335Z,96427.55
2018-11-10T17:56:46.771Z,96451.64
2018-11-10T17:59:14.222Z,96444.05
2018-11-10T18:01:41.692Z,96445.44
2018-11-10T18:04:09.137Z,96460.45
2018-11-10T18:06:36.598Z,96481.50
2018-11-10T18:09:04.030Z,96489.02
2018-11-10T18:11:31.493Z,96486.25
2018-11-10T18:13:59.016Z,96491.80
2018-11-10T18:16:26.462Z,96499.78
2018-11-10T18:18:53.982Z,96507.69
2018-11-10T18:21:21.399Z,96509.34
2018-11-10T18:23:48.881Z,96508.93
2018-11-10T18:26:16.303Z,96514.48
2018-11-10T18:28:43.736Z,96521.39
2018-11-10T18:31:11.201Z,96528.19
2018-11-10T18:33:39.026Z,96528.57
2018-11-10T18:36:06.482Z,96515.84
2018-11-10T18:38:33.915Z,96519.42
2018-11-10T18:41:01.341Z,96525.95
2018-11-10T18:43:28.745Z,96537.72
2018-11-10T18:45:56.191Z,96544.69
2018-11-10T18:48:23.601Z,96554.98
2018-11-10T18:50:51.064Z,96551.19
2018-11-10T18:53:18.474Z,96549.01
2018-11-10T18:55:46.043Z,96546.93
2018-11-10T18:58:13.596Z,96546.38
2018-11-10T19:00:40.967Z,96535.23
2018-11-10T19:03:08.408Z,96531.70
2018-11-10T19:05:35.829Z,96539.37
2018-11-10T19:08:03.272Z,96534.05
2018-11-10T19:10:30.710Z,96537.53
2018-11-10T19:12:58.176Z,96531.21
2018-11-10T19:15:25.592Z,96539.36
2018-11-10T19:17:53.966Z,96546.11
2018-11-10T19:20:21.442Z,96533.81
2018-11-10T19:22:49.011Z,96523.08
2018-11-10T19:25:16.417Z,96525.15
2018-11-10T19:27:43.979Z,96533.22
2018-11-10T19:30:11.647Z,96540.61
2018-11-10T19:32:39.148Z,96536.95
2018-11-10T19:35:06.599Z,96536.12
2018-11-10T19:37:34.142Z,96544.69
2018-11-10T19:40:01.661Z,96549.94
2018-11-10T19:42:29.064Z,96553.39
2018-11-10T19:44:56.486Z,96554.19
2018-11-10T19:47:23.920Z,96545.00
2018-11-10T19:49:51.428Z,96563.33
2018-11-10T19:52:18.866Z,96565.06
2018-11-10T19:54:46.396Z,96564.23
2018-11-10T19:57:13.852Z,96560.95
2018-11-10T19:59:41.311Z,96566.20
2018-11-10T20:02:08.804Z,96560.19
2018-11-10T20:04:36.224Z,96577.55
2018-11-10T20:07:03.650Z,96570.41
2018-11-10T20:09:31.107Z,96558.28
2018-11-10T20:11:58.538Z,96567.51
2018-11-10T20:14:26.112Z,96573.20
2018-11-10T20:16:53.565Z,96565.44
2018-11-10T20:19:21.039Z,96566.71
2018-11-10T20:21:48.449Z,96574.82
2018-11-10T20:24:16.798Z,96576.86
2018-11-10T20:26:44.205Z,96582.91
2018-11-10T20:29:11.670Z,96578.70
2018-11-10T20:31:39.103Z,96575.45
2018-11-10T20:34:06.658Z,96578.49
2018-11-10T20:36:34.070Z,96584.95
2018-11-10T20:39:01.629Z,96574.52
2018-11-10T20:41:28.973Z,96568.92
2018-11-10T20:43:56.442Z,96567.34
2018-11-10T20:46:23.886Z,96564.95
2018-11-10T20:48:51.316Z,96563.40
2018-11-10T20:51:18.896Z,96581.77
2018-11-10T20:53:46.320Z,96584.98
2018-11-10T20:56:14.162Z,96572.83
2018-11-10T20:58:41.634Z,96568.16
2018-11-10T21:01:09.060Z,96569.00
2018-11-10T21:03:36.576Z,96577.15
2018-11-10T21:06:04.167Z,96575.42
2018-11-10T21:08:31.791Z,96580.02
2018-11-10T21:10:59.253Z,96580.02
2018-11-10T21:13:26.723Z,96574.87
2018-11-10T21:15:54.130Z,96573.59
2018-11-10T21:18:21.568Z,96584.91
2018-11-10T21:20:49.135Z,96591.68
2018-11-10T21:23:16.567Z,96587.64
2018-11-10T21:25:44.005Z,96585.42
2018-11-10T21:28:11.549Z,96582.97
2018-11-10T21:30:39.085Z,96583.23
2018-11-10T21:33:06.727Z,96573.89
2018-11-10T21:35:34.896Z,96583.70
2018-11-10T21:38:02.533Z,96577.73
2018-11-10T21:40:29.950Z,96583.45
2018-11-10T21:42:57.408Z,96586.36
2018-11-10T21:45:24.874Z,96586.67
2018-11-10T21:47:52.323Z,96593.78
2018-11-10T21:50:19.796Z,96607.25
2018-11-10T21:52:47.233Z,96610.32
2018-11-10T21:55:14.692Z,96608.19
2018-11-10T21:57:42.180Z,96604.02
2018-11-10T22:00:09.662Z,96609.74
2018-11-10T22:02:37.156Z,96613.16
2018-11-10T22:05:04.959Z,96609.74
2018-11-10T22:07:32.370Z,96614.34
2018-11-10T22:10:00.000Z,96601.63
2018-11-10T22:12:27.324Z,96608.81
2018-11-10T22:14:54.757Z,96600.97
2018-11-10T22:17:22.193Z,96606.05
2018-11-10T22:19:49.662Z,96596.10
2018-11-10T22:22:17.148Z,96599.87
2018-11-10T22:24:44.597Z,96606.05
2018-11-10T22:27:12.031Z,96611.30
2018-11-10T22:29:39.521Z,96613.09
2018-11-10T22:32:06.926Z,96614.82
2018-11-10T22:34:34.349Z,96612.44
2018-11-10T22:37:01.848Z,96620.10
2018-11-10T22:39:29.266Z,96612.16
2018-11-10T22:41:56.713Z,96602.96
2018-11-10T22:44:24.175Z,96602.75
2018-11-10T22:46:51.635Z,96599.02
2018-11-10T22:49:19.072Z,96601.09
2018-11-10T22:51:46.524Z,96606.83
2018-11-10T22:54:14.026Z,96601.27
2018-11-10T22:56:41.550Z,96604.45
2018-11-10T22:59:08.997Z,96605.69
2018-11-10T23:01:36.411Z,96613.62
2018-11-10T23:04:03.871Z,96617.91
2018-11-10T23:06:31.549Z,96623.16
2018-11-10T23:08:58.980Z,96630.59
2018-11-10T23:11:26.468Z,96628.67
2018-11-10T23:13:53.971Z,96616.97
2018-11-10T23:16:21.501Z,96618.08
2018-11-10T23:18:48.952Z,96617.80
2018-11-10T23:21:16.501Z,96618.66
2018-11-10T23:23:43.987Z,96623.43
2018-11-10T23:26:11.485Z,96628.27
2018-11-10T23:28:38.928Z,96628.75
2018-11-10T23:31:06.431Z,96627.17
2018-11-10T23:33:33.866Z,96629.38
2018-11-10T23:36:01.286Z,96626.03
2018-11-10T23:38:29.348Z,96619.84
2018-11-10T23:40:57.746Z,96620.69
2018-11-10T23:43:25.201Z,96616.16
2018-11-10T23:45:52.611Z,96617.55
2018-11-10T23:48:20.176Z,96617.13
2018-11-10T23:50:47.647Z,96629.11
2018-11-10T23:53:15.123Z,96633.30
2018-11-10T23:55:43.392Z,96641.89
2018-11-10T23:58:10.836Z,96635.78
